sensor_id;sensor_type;location;lat;lon;timestamp;P1;durP1;ratioP1;P2;durP2;ratioP2
5499;SDS011;2772;42.700;23.304;2023-04-24T00:01:20;11.00;;;7.50;;
5499;SDS011;2772;42.700;23.304;2023-04-24T00:03:47;14.30;;;8.03;;
5499;SDS011;2772;42.700;23.304;2023-04-24T00:06:13;16.57;;;8.13;;
5499;SDS011;2772;42.700;23.304;2023-04-24T00:08:41;13.23;;;7.90;;
5499;SDS011;2772;42.700;23.304;2023-04-24T00:11:08;12.07;;;7.60;;
5499;SDS011;2772;42.700;23.304;2023-04-24T00:13:36;12.60;;;8.20;;
5499;SDS011;2772;42.700;23.304;2023-04-24T00:16:04;9.73;;;7.20;;
5499;SDS011;2772;42.700;23.304;2023-04-24T00:18:31;10.97;;;6.93;;
5499;SDS011;2772;42.700;23.304;2023-04-24T00:20:58;9.80;;;6.43;;
5499;SDS011;2772;42.700;23.304;2023-04-24T00:23:24;9.93;;;7.20;;
5499;SDS011;2772;42.700;23.304;2023-04-24T00:25:51;17.00;;;6.57;;
5499;SDS011;2772;42.700;23.304;2023-04-24T00:28:18;10.13;;;6.30;;
5499;SDS011;2772;42.700;23.304;2023-04-24T00:30:46;10.80;;;6.50;;
5499;SDS011;2772;42.700;23.304;2023-04-24T00:33:13;15.50;;;6.87;;
5499;SDS011;2772;42.700;23.304;2023-04-24T00:35:40;6.33;;;5.63;;
5499;SDS011;2772;42.700;23.304;2023-04-24T00:38:06;7.80;;;5.30;;
5499;SDS011;2772;42.700;23.304;2023-04-24T00:40:33;11.40;;;5.57;;
5499;SDS011;2772;42.700;23.304;2023-04-24T00:43:00;8.93;;;5.37;;
5499;SDS011;2772;42.700;23.304;2023-04-24T00:45:27;9.10;;;5.27;;
5499;SDS011;2772;42.700;23.304;2023-04-24T00:47:55;7.77;;;5.10;;
5499;SDS011;2772;42.700;23.304;2023-04-24T00:50:23;8.27;;;5.70;;
5499;SDS011;2772;42.700;23.304;2023-04-24T00:52:51;9.93;;;5.43;;
5499;SDS011;2772;42.700;23.304;2023-04-24T00:55:18;9.73;;;5.90;;
5499;SDS011;2772;42.700;23.304;2023-04-24T00:57:45;7.87;;;5.50;;
5499;SDS011;2772;42.700;23.304;2023-04-24T01:00:13;6.10;;;5.50;;
5499;SDS011;2772;42.700;23.304;2023-04-24T01:02:41;6.73;;;5.80;;
5499;SDS011;2772;42.700;23.304;2023-04-24T01:05:11;7.13;;;6.33;;
5499;SDS011;2772;42.700;23.304;2023-04-24T01:07:38;12.00;;;5.27;;
5499;SDS011;2772;42.700;23.304;2023-04-24T01:10:09;6.17;;;5.67;;
5499;SDS011;2772;42.700;23.304;2023-04-24T01:12:36;9.03;;;5.87;;
5499;SDS011;2772;42.700;23.304;2023-04-24T01:15:04;8.70;;;6.07;;
5499;SDS011;2772;42.700;23.304;2023-04-24T01:17:31;6.70;;;5.57;;
5499;SDS011;2772;42.700;23.304;2023-04-24T01:19:58;9.50;;;5.80;;
5499;SDS011;2772;42.700;23.304;2023-04-24T01:22:27;11.20;;;5.93;;
5499;SDS011;2772;42.700;23.304;2023-04-24T01:24:53;7.40;;;5.73;;
5499;SDS011;2772;42.700;23.304;2023-04-24T01:27:20;10.03;;;5.60;;
5499;SDS011;2772;42.700;23.304;2023-04-24T01:29:47;7.60;;;5.80;;
5499;SDS011;2772;42.700;23.304;2023-04-24T01:32:16;6.80;;;5.93;;
5499;SDS011;2772;42.700;23.304;2023-04-24T01:34:44;6.50;;;5.90;;
5499;SDS011;2772;42.700;23.304;2023-04-24T01:37:12;6.33;;;5.77;;
5499;SDS011;2772;42.700;23.304;2023-04-24T01:39:40;8.87;;;5.80;;
5499;SDS011;2772;42.700;23.304;2023-04-24T01:42:06;7.47;;;5.70;;
5499;SDS011;2772;42.700;23.304;2023-04-24T01:44:33;8.20;;;5.97;;
5499;SDS011;2772;42.700;23.304;2023-04-24T01:47:00;10.07;;;5.83;;
5499;SDS011;2772;42.700;23.304;2023-04-24T01:49:27;10.07;;;6.83;;
5499;SDS011;2772;42.700;23.304;2023-04-24T01:51:54;6.80;;;6.17;;
5499;SDS011;2772;42.700;23.304;2023-04-24T01:54:21;9.63;;;6.20;;
5499;SDS011;2772;42.700;23.304;2023-04-24T01:56:49;9.60;;;6.37;;
5499;SDS011;2772;42.700;23.304;2023-04-24T01:59:16;8.20;;;6.30;;
5499;SDS011;2772;42.700;23.304;2023-04-24T02:01:43;10.13;;;5.97;;
5499;SDS011;2772;42.700;23.304;2023-04-24T02:04:10;8.07;;;6.40;;
5499;SDS011;2772;42.700;23.304;2023-04-24T02:06:37;11.73;;;6.75;;
5499;SDS011;2772;42.700;23.304;2023-04-24T02:09:03;9.10;;;6.50;;
5499;SDS011;2772;42.700;23.304;2023-04-24T02:11:31;7.03;;;6.33;;
5499;SDS011;2772;42.700;23.304;2023-04-24T02:13:59;11.27;;;6.90;;
5499;SDS011;2772;42.700;23.304;2023-04-24T02:16:26;13.00;;;6.47;;
5499;SDS011;2772;42.700;23.304;2023-04-24T02:18:55;9.13;;;6.40;;
5499;SDS011;2772;42.700;23.304;2023-04-24T02:21:22;10.60;;;6.87;;
5499;SDS011;2772;42.700;23.304;2023-04-24T02:23:48;9.80;;;6.80;;
5499;SDS011;2772;42.700;23.304;2023-04-24T02:26:15;13.17;;;6.80;;
5499;SDS011;2772;42.700;23.304;2023-04-24T02:28:42;14.00;;;7.40;;
5499;SDS011;2772;42.700;23.304;2023-04-24T02:31:10;7.80;;;6.80;;
5499;SDS011;2772;42.700;23.304;2023-04-24T02:33:37;10.53;;;6.80;;
5499;SDS011;2772;42.700;23.304;2023-04-24T02:36:04;8.23;;;6.90;;
5499;SDS011;2772;42.700;23.304;2023-04-24T02:38:31;9.83;;;6.67;;
5499;SDS011;2772;42.700;23.304;2023-04-24T02:40:57;19.57;;;7.17;;
5499;SDS011;2772;42.700;23.304;2023-04-24T02:43:25;16.17;;;7.20;;
5499;SDS011;2772;42.700;23.304;2023-04-24T02:45:52;13.20;;;6.87;;
5499;SDS011;2772;42.700;23.304;2023-04-24T02:48:20;11.97;;;6.60;;
5499;SDS011;2772;42.700;23.304;2023-04-24T02:50:47;9.33;;;6.60;;
5499;SDS011;2772;42.700;23.304;2023-04-24T02:53:13;9.97;;;6.80;;
5499;SDS011;2772;42.700;23.304;2023-04-24T02:55:40;7.70;;;6.90;;
5499;SDS011;2772;42.700;23.304;2023-04-24T02:58:07;13.40;;;7.80;;
5499;SDS011;2772;42.700;23.304;2023-04-24T03:00:33;17.20;;;7.90;;
5499;SDS011;2772;42.700;23.304;2023-04-24T03:03:00;9.93;;;7.27;;
5499;SDS011;2772;42.700;23.304;2023-04-24T03:05:29;10.30;;;7.53;;
5499;SDS011;2772;42.700;23.304;2023-04-24T03:07:56;12.70;;;7.10;;
5499;SDS011;2772;42.700;23.304;2023-04-24T03:10:22;10.83;;;7.33;;
5499;SDS011;2772;42.700;23.304;2023-04-24T03:12:49;12.00;;;7.20;;
5499;SDS011;2772;42.700;23.304;2023-04-24T03:15:16;9.10;;;6.90;;
5499;SDS011;2772;42.700;23.304;2023-04-24T03:17:43;11.70;;;7.80;;
5499;SDS011;2772;42.700;23.304;2023-04-24T03:20:09;14.70;;;8.20;;
5499;SDS011;2772;42.700;23.304;2023-04-24T03:22:37;10.67;;;7.83;;
5499;SDS011;2772;42.700;23.304;2023-04-24T03:25:05;13.13;;;7.63;;
5499;SDS011;2772;42.700;23.304;2023-04-24T03:27:33;14.87;;;9.47;;
5499;SDS011;2772;42.700;23.304;2023-04-24T03:29:59;17.33;;;8.97;;
5499;SDS011;2772;42.700;23.304;2023-04-24T03:32:27;11.60;;;9.00;;
5499;SDS011;2772;42.700;23.304;2023-04-24T03:34:53;13.90;;;9.17;;
5499;SDS011;2772;42.700;23.304;2023-04-24T03:37:20;13.53;;;9.90;;
5499;SDS011;2772;42.700;23.304;2023-04-24T03:39:48;16.70;;;10.10;;
5499;SDS011;2772;42.700;23.304;2023-04-24T03:42:15;17.53;;;10.37;;
5499;SDS011;2772;42.700;23.304;2023-04-24T03:44:42;16.30;;;10.20;;
5499;SDS011;2772;42.700;23.304;2023-04-24T03:47:08;21.53;;;10.37;;
5499;SDS011;2772;42.700;23.304;2023-04-24T03:49:35;21.73;;;9.90;;
5499;SDS011;2772;42.700;23.304;2023-04-24T03:52:02;15.00;;;9.20;;
5499;SDS011;2772;42.700;23.304;2023-04-24T03:54:28;17.93;;;10.87;;
5499;SDS011;2772;42.700;23.304;2023-04-24T03:56:56;22.03;;;10.30;;
5499;SDS011;2772;42.700;23.304;2023-04-24T03:59:23;26.80;;;11.50;;
5499;SDS011;2772;42.700;23.304;2023-04-24T04:01:50;14.97;;;9.80;;
5499;SDS011;2772;42.700;23.304;2023-04-24T04:04:16;17.60;;;11.27;;
5499;SDS011;2772;42.700;23.304;2023-04-24T04:06:43;31.90;;;11.00;;
5499;SDS011;2772;42.700;23.304;2023-04-24T04:09:11;15.20;;;10.80;;
5499;SDS011;2772;42.700;23.304;2023-04-24T04:11:38;17.50;;;10.80;;
5499;SDS011;2772;42.700;23.304;2023-04-24T04:14:06;23.10;;;12.35;;
5499;SDS011;2772;42.700;23.304;2023-04-24T04:16:33;18.07;;;11.97;;
5499;SDS011;2772;42.700;23.304;2023-04-24T04:19:01;27.87;;;11.70;;
5499;SDS011;2772;42.700;23.304;2023-04-24T04:21:28;17.83;;;10.97;;
5499;SDS011;2772;42.700;23.304;2023-04-24T04:23:57;16.27;;;8.37;;
5499;SDS011;2772;42.700;23.304;2023-04-24T04:26:24;19.43;;;9.30;;
5499;SDS011;2772;42.700;23.304;2023-04-24T04:28:51;11.37;;;6.87;;
5499;SDS011;2772;42.700;23.304;2023-04-24T04:31:19;10.40;;;6.63;;
5499;SDS011;2772;42.700;23.304;2023-04-24T04:33:47;19.10;;;6.13;;
5499;SDS011;2772;42.700;23.304;2023-04-24T04:36:13;8.00;;;5.30;;
5499;SDS011;2772;42.700;23.304;2023-04-24T04:38:42;15.80;;;6.77;;
5499;SDS011;2772;42.700;23.304;2023-04-24T04:41:09;8.80;;;7.17;;
5499;SDS011;2772;42.700;23.304;2023-04-24T04:43:36;11.67;;;6.80;;
5499;SDS011;2772;42.700;23.304;2023-04-24T04:46:04;11.60;;;6.50;;
5499;SDS011;2772;42.700;23.304;2023-04-24T04:48:34;9.07;;;6.17;;
5499;SDS011;2772;42.700;23.304;2023-04-24T04:51:01;7.43;;;6.10;;
5499;SDS011;2772;42.700;23.304;2023-04-24T04:53:28;9.67;;;6.30;;
5499;SDS011;2772;42.700;23.304;2023-04-24T04:55:54;8.40;;;6.37;;
5499;SDS011;2772;42.700;23.304;2023-04-24T04:58:21;11.33;;;6.97;;
5499;SDS011;2772;42.700;23.304;2023-04-24T05:00:48;10.83;;;6.40;;
5499;SDS011;2772;42.700;23.304;2023-04-24T05:03:15;13.40;;;6.60;;
5499;SDS011;2772;42.700;23.304;2023-04-24T05:05:43;13.27;;;7.47;;
5499;SDS011;2772;42.700;23.304;2023-04-24T05:08:09;12.50;;;8.20;;
5499;SDS011;2772;42.700;23.304;2023-04-24T05:10:36;11.90;;;7.30;;
5499;SDS011;2772;42.700;23.304;2023-04-24T05:13:03;10.23;;;6.93;;
5499;SDS011;2772;42.700;23.304;2023-04-24T05:15:30;9.30;;;6.80;;
5499;SDS011;2772;42.700;23.304;2023-04-24T05:17:56;12.87;;;7.97;;
5499;SDS011;2772;42.700;23.304;2023-04-24T05:20:23;11.90;;;7.47;;
5499;SDS011;2772;42.700;23.304;2023-04-24T05:22:51;13.67;;;8.07;;
5499;SDS011;2772;42.700;23.304;2023-04-24T05:25:18;48.17;;;7.90;;
5499;SDS011;2772;42.700;23.304;2023-04-24T05:27:45;21.63;;;7.73;;
5499;SDS011;2772;42.700;23.304;2023-04-24T05:30:12;18.83;;;8.40;;
5499;SDS011;2772;42.700;23.304;2023-04-24T05:32:39;11.70;;;7.80;;
5499;SDS011;2772;42.700;23.304;2023-04-24T05:35:06;17.43;;;8.37;;
5499;SDS011;2772;42.700;23.304;2023-04-24T05:37:33;10.83;;;7.67;;
5499;SDS011;2772;42.700;23.304;2023-04-24T05:40:01;13.13;;;8.13;;
5499;SDS011;2772;42.700;23.304;2023-04-24T05:42:29;16.13;;;7.90;;
5499;SDS011;2772;42.700;23.304;2023-04-24T05:44:56;19.17;;;7.77;;
5499;SDS011;2772;42.700;23.304;2023-04-24T05:47:23;12.30;;;8.03;;
5499;SDS011;2772;42.700;23.304;2023-04-24T05:49:51;11.87;;;7.70;;
5499;SDS011;2772;42.700;23.304;2023-04-24T05:52:18;14.13;;;7.97;;
5499;SDS011;2772;42.700;23.304;2023-04-24T05:54:44;18.47;;;9.63;;
5499;SDS011;2772;42.700;23.304;2023-04-24T05:57:12;12.03;;;10.03;;
5499;SDS011;2772;42.700;23.304;2023-04-24T05:59:40;12.77;;;9.30;;
5499;SDS011;2772;42.700;23.304;2023-04-24T06:02:07;11.33;;;8.00;;
5499;SDS011;2772;42.700;23.304;2023-04-24T06:04:33;15.50;;;7.73;;
5499;SDS011;2772;42.700;23.304;2023-04-24T06:07:00;11.40;;;7.80;;
5499;SDS011;2772;42.700;23.304;2023-04-24T06:09:27;15.50;;;8.17;;
5499;SDS011;2772;42.700;23.304;2023-04-24T06:11:54;11.40;;;8.43;;
5499;SDS011;2772;42.700;23.304;2023-04-24T06:14:23;17.50;;;8.60;;
5499;SDS011;2772;42.700;23.304;2023-04-24T06:16:49;12.17;;;8.77;;
5499;SDS011;2772;42.700;23.304;2023-04-24T06:19:16;12.50;;;9.00;;
5499;SDS011;2772;42.700;23.304;2023-04-24T06:21:43;13.73;;;8.90;;
5499;SDS011;2772;42.700;23.304;2023-04-24T06:24:09;17.90;;;9.27;;
5499;SDS011;2772;42.700;23.304;2023-04-24T06:26:37;14.10;;;9.20;;
5499;SDS011;2772;42.700;23.304;2023-04-24T06:29:03;15.70;;;9.67;;
5499;SDS011;2772;42.700;23.304;2023-04-24T06:31:31;17.33;;;8.20;;
5499;SDS011;2772;42.700;23.304;2023-04-24T06:34:01;11.27;;;8.60;;
5499;SDS011;2772;42.700;23.304;2023-04-24T06:36:28;17.27;;;8.67;;
5499;SDS011;2772;42.700;23.304;2023-04-24T06:38:55;15.10;;;9.48;;
5499;SDS011;2772;42.700;23.304;2023-04-24T06:41:22;12.43;;;8.83;;
5499;SDS011;2772;42.700;23.304;2023-04-24T06:43:49;17.40;;;8.70;;
5499;SDS011;2772;42.700;23.304;2023-04-24T06:46:16;12.13;;;8.77;;
5499;SDS011;2772;42.700;23.304;2023-04-24T06:48:44;13.53;;;9.77;;
5499;SDS011;2772;42.700;23.304;2023-04-24T06:51:11;20.70;;;10.47;;
5499;SDS011;2772;42.700;23.304;2023-04-24T06:53:37;24.50;;;10.90;;
5499;SDS011;2772;42.700;23.304;2023-04-24T06:56:04;17.60;;;9.47;;
5499;SDS011;2772;42.700;23.304;2023-04-24T06:58:31;17.80;;;10.90;;
5499;SDS011;2772;42.700;23.304;2023-04-24T07:00:58;18.20;;;10.10;;
5499;SDS011;2772;42.700;23.304;2023-04-24T07:03:24;16.07;;;10.20;;
5499;SDS011;2772;42.700;23.304;2023-04-24T07:05:52;15.27;;;9.63;;
5499;SDS011;2772;42.700;23.304;2023-04-24T07:08:20;15.47;;;10.93;;
5499;SDS011;2772;42.700;23.304;2023-04-24T07:10:48;23.03;;;11.10;;
5499;SDS011;2772;42.700;23.304;2023-04-24T07:13:15;19.13;;;10.17;;
5499;SDS011;2772;42.700;23.304;2023-04-24T07:15:42;19.50;;;10.90;;
5499;SDS011;2772;42.700;23.304;2023-04-24T07:18:09;22.23;;;10.50;;
5499;SDS011;2772;42.700;23.304;2023-04-24T07:20:36;19.97;;;10.40;;
5499;SDS011;2772;42.700;23.304;2023-04-24T07:23:04;17.93;;;11.50;;
5499;SDS011;2772;42.700;23.304;2023-04-24T07:25:30;19.87;;;12.07;;
5499;SDS011;2772;42.700;23.304;2023-04-24T07:27:57;18.60;;;11.57;;
5499;SDS011;2772;42.700;23.304;2023-04-24T07:30:24;27.37;;;14.07;;
5499;SDS011;2772;42.700;23.304;2023-04-24T07:32:50;18.73;;;11.50;;
5499;SDS011;2772;42.700;23.304;2023-04-24T07:35:17;18.60;;;10.63;;
5499;SDS011;2772;42.700;23.304;2023-04-24T07:37:45;22.13;;;11.87;;
5499;SDS011;2772;42.700;23.304;2023-04-24T07:40:13;20.70;;;10.83;;
5499;SDS011;2772;42.700;23.304;2023-04-24T07:42:40;15.23;;;10.80;;
5499;SDS011;2772;42.700;23.304;2023-04-24T07:45:07;20.93;;;11.20;;
5499;SDS011;2772;42.700;23.304;2023-04-24T07:47:34;14.05;;;10.50;;
5499;SDS011;2772;42.700;23.304;2023-04-24T07:50:01;12.47;;;9.93;;
5499;SDS011;2772;42.700;23.304;2023-04-24T07:52:28;16.93;;;10.07;;
5499;SDS011;2772;42.700;23.304;2023-04-24T07:54:55;9.33;;;8.27;;
5499;SDS011;2772;42.700;23.304;2023-04-24T07:57:25;12.63;;;9.17;;
5499;SDS011;2772;42.700;23.304;2023-04-24T07:59:51;12.23;;;9.60;;
5499;SDS011;2772;42.700;23.304;2023-04-24T08:02:18;16.57;;;8.93;;
5499;SDS011;2772;42.700;23.304;2023-04-24T08:04:46;13.53;;;9.20;;
5499;SDS011;2772;42.700;23.304;2023-04-24T08:07:13;9.90;;;8.40;;
5499;SDS011;2772;42.700;23.304;2023-04-24T08:09:40;9.47;;;8.30;;
5499;SDS011;2772;42.700;23.304;2023-04-24T08:12:06;9.93;;;7.87;;
5499;SDS011;2772;42.700;23.304;2023-04-24T08:14:35;16.07;;;8.70;;
5499;SDS011;2772;42.700;23.304;2023-04-24T08:17:01;12.37;;;9.27;;
5499;SDS011;2772;42.700;23.304;2023-04-24T08:19:28;10.40;;;9.13;;
5499;SDS011;2772;42.700;23.304;2023-04-24T08:21:55;18.37;;;10.00;;
5499;SDS011;2772;42.700;23.304;2023-04-24T08:24:22;15.10;;;9.50;;
5499;SDS011;2772;42.700;23.304;2023-04-24T08:26:49;15.23;;;10.57;;
5499;SDS011;2772;42.700;23.304;2023-04-24T08:29:16;12.40;;;9.70;;
5499;SDS011;2772;42.700;23.304;2023-04-24T08:31:44;13.87;;;8.80;;
5499;SDS011;2772;42.700;23.304;2023-04-24T08:34:11;10.70;;;8.73;;
5499;SDS011;2772;42.700;23.304;2023-04-24T08:36:38;15.47;;;8.57;;
5499;SDS011;2772;42.700;23.304;2023-04-24T08:39:06;13.27;;;8.53;;
5499;SDS011;2772;42.700;23.304;2023-04-24T08:41:33;16.07;;;9.10;;
5499;SDS011;2772;42.700;23.304;2023-04-24T08:44:01;15.30;;;9.53;;
5499;SDS011;2772;42.700;23.304;2023-04-24T08:46:28;19.03;;;10.20;;
5499;SDS011;2772;42.700;23.304;2023-04-24T08:48:57;13.30;;;9.68;;
5499;SDS011;2772;42.700;23.304;2023-04-24T08:51:25;11.57;;;8.20;;
5499;SDS011;2772;42.700;23.304;2023-04-24T08:53:52;18.60;;;9.73;;
5499;SDS011;2772;42.700;23.304;2023-04-24T08:56:20;13.70;;;10.30;;
5499;SDS011;2772;42.700;23.304;2023-04-24T08:58:48;14.43;;;9.33;;
5499;SDS011;2772;42.700;23.304;2023-04-24T09:01:15;15.10;;;8.67;;
5499;SDS011;2772;42.700;23.304;2023-04-24T09:03:43;12.10;;;9.18;;
5499;SDS011;2772;42.700;23.304;2023-04-24T09:06:11;11.97;;;9.60;;
5499;SDS011;2772;42.700;23.304;2023-04-24T09:08:38;15.90;;;8.63;;
5499;SDS011;2772;42.700;23.304;2023-04-24T09:11:07;9.87;;;7.70;;
5499;SDS011;2772;42.700;23.304;2023-04-24T09:13:34;21.87;;;9.23;;
5499;SDS011;2772;42.700;23.304;2023-04-24T09:16:01;24.87;;;9.67;;
5499;SDS011;2772;42.700;23.304;2023-04-24T09:18:28;15.77;;;9.20;;
5499;SDS011;2772;42.700;23.304;2023-04-24T09:20:58;15.30;;;8.70;;
5499;SDS011;2772;42.700;23.304;2023-04-24T09:23:31;13.63;;;8.80;;
5499;SDS011;2772;42.700;23.304;2023-04-24T09:25:58;16.53;;;8.50;;
5499;SDS011;2772;42.700;23.304;2023-04-24T09:28:26;13.47;;;9.00;;
5499;SDS011;2772;42.700;23.304;2023-04-24T09:31:02;13.55;;;8.10;;
5499;SDS011;2772;42.700;23.304;2023-04-24T09:33:33;51.47;;;10.63;;
5499;SDS011;2772;42.700;23.304;2023-04-24T09:35:59;18.83;;;8.70;;
5499;SDS011;2772;42.700;23.304;2023-04-24T09:38:32;26.27;;;9.50;;
5499;SDS011;2772;42.700;23.304;2023-04-24T09:41:00;13.70;;;8.27;;
5499;SDS011;2772;42.700;23.304;2023-04-24T09:43:28;21.83;;;8.67;;
5499;SDS011;2772;42.700;23.304;2023-04-24T09:45:56;33.63;;;9.07;;
5499;SDS011;2772;42.700;23.304;2023-04-24T09:48:30;10.00;;;7.87;;
5499;SDS011;2772;42.700;23.304;2023-04-24T09:50:57;10.00;;;8.13;;
5499;SDS011;2772;42.700;23.304;2023-04-24T09:53:24;13.23;;;7.67;;
5499;SDS011;2772;42.700;23.304;2023-04-24T09:55:53;8.67;;;7.80;;
5499;SDS011;2772;42.700;23.304;2023-04-24T09:58:24;11.27;;;7.60;;
5499;SDS011;2772;42.700;23.304;2023-04-24T10:00:53;13.93;;;7.50;;
5499;SDS011;2772;42.700;23.304;2023-04-24T10:03:20;17.13;;;8.60;;
5499;SDS011;2772;42.700;23.304;2023-04-24T10:05:47;11.10;;;7.60;;
5499;SDS011;2772;42.700;23.304;2023-04-24T10:08:14;8.77;;;7.30;;
5499;SDS011;2772;42.700;23.304;2023-04-24T10:10:41;12.33;;;8.70;;
5499;SDS011;2772;42.700;23.304;2023-04-24T10:13:11;48.97;;;30.77;;
5499;SDS011;2772;42.700;23.304;2023-04-24T10:15:40;9.80;;;7.90;;
5499;SDS011;2772;42.700;23.304;2023-04-24T10:18:07;11.00;;;6.60;;
5499;SDS011;2772;42.700;23.304;2023-04-24T10:20:35;12.03;;;7.07;;
5499;SDS011;2772;42.700;23.304;2023-04-24T10:23:03;8.57;;;7.18;;
5499;SDS011;2772;42.700;23.304;2023-04-24T10:25:31;10.13;;;7.50;;
5499;SDS011;2772;42.700;23.304;2023-04-24T10:27:59;12.50;;;10.03;;
5499;SDS011;2772;42.700;23.304;2023-04-24T10:30:28;9.47;;;8.33;;
5499;SDS011;2772;42.700;23.304;2023-04-24T10:33:00;10.10;;;7.30;;
5499;SDS011;2772;42.700;23.304;2023-04-24T10:35:27;10.73;;;7.07;;
5499;SDS011;2772;42.700;23.304;2023-04-24T10:37:58;10.63;;;8.20;;
5499;SDS011;2772;42.700;23.304;2023-04-24T10:40:30;11.70;;;8.43;;
5499;SDS011;2772;42.700;23.304;2023-04-24T10:42:58;10.83;;;7.30;;
5499;SDS011;2772;42.700;23.304;2023-04-24T10:45:25;10.10;;;8.13;;
5499;SDS011;2772;42.700;23.304;2023-04-24T10:48:01;9.17;;;7.20;;
5499;SDS011;2772;42.700;23.304;2023-04-24T10:50:29;11.97;;;7.30;;
5499;SDS011;2772;42.700;23.304;2023-04-24T10:53:12;16.53;;;7.37;;
5499;SDS011;2772;42.700;23.304;2023-04-24T10:55:40;9.10;;;7.33;;
5499;SDS011;2772;42.700;23.304;2023-04-24T10:58:09;10.30;;;7.17;;
5499;SDS011;2772;42.700;23.304;2023-04-24T11:00:37;13.77;;;7.90;;
5499;SDS011;2772;42.700;23.304;2023-04-24T11:03:06;9.77;;;6.77;;
5499;SDS011;2772;42.700;23.304;2023-04-24T11:05:49;11.00;;;6.77;;
5499;SDS011;2772;42.700;23.304;2023-04-24T11:08:21;9.70;;;7.33;;
5499;SDS011;2772;42.700;23.304;2023-04-24T11:10:54;12.80;;;7.47;;
5499;SDS011;2772;42.700;23.304;2023-04-24T11:13:23;15.27;;;7.90;;
5499;SDS011;2772;42.700;23.304;2023-04-24T11:18:51;8.83;;;6.97;;
5499;SDS011;2772;42.700;23.304;2023-04-24T11:21:28;14.17;;;8.57;;
5499;SDS011;2772;42.700;23.304;2023-04-24T11:23:57;18.17;;;8.10;;
5499;SDS011;2772;42.700;23.304;2023-04-24T11:26:24;14.30;;;6.80;;
5499;SDS011;2772;42.700;23.304;2023-04-24T11:29:05;22.97;;;14.50;;
5499;SDS011;2772;42.700;23.304;2023-04-24T11:31:39;20.70;;;11.23;;
5499;SDS011;2772;42.700;23.304;2023-04-24T11:34:12;17.60;;;12.53;;
5499;SDS011;2772;42.700;23.304;2023-04-24T11:36:39;13.03;;;8.57;;
5499;SDS011;2772;42.700;23.304;2023-04-24T11:39:08;47.53;;;24.07;;
5499;SDS011;2772;42.700;23.304;2023-04-24T11:41:36;39.40;;;24.20;;
5499;SDS011;2772;42.700;23.304;2023-04-24T11:44:03;31.87;;;21.50;;
5499;SDS011;2772;42.700;23.304;2023-04-24T11:46:32;27.83;;;19.93;;
5499;SDS011;2772;42.700;23.304;2023-04-24T11:48:59;12.00;;;9.20;;
5499;SDS011;2772;42.700;23.304;2023-04-24T11:51:27;11.07;;;6.80;;
5499;SDS011;2772;42.700;23.304;2023-04-24T11:53:54;10.90;;;9.10;;
5499;SDS011;2772;42.700;23.304;2023-04-24T11:56:22;16.33;;;10.43;;
5499;SDS011;2772;42.700;23.304;2023-04-24T11:58:51;13.43;;;10.83;;
5499;SDS011;2772;42.700;23.304;2023-04-24T12:01:18;7.13;;;6.53;;
5499;SDS011;2772;42.700;23.304;2023-04-24T12:03:47;8.03;;;7.23;;
5499;SDS011;2772;42.700;23.304;2023-04-24T12:06:16;6.80;;;5.80;;
5499;SDS011;2772;42.700;23.304;2023-04-24T12:08:46;7.37;;;6.57;;
5499;SDS011;2772;42.700;23.304;2023-04-24T12:11:14;6.40;;;5.80;;
5499;SDS011;2772;42.700;23.304;2023-04-24T12:13:43;7.30;;;6.60;;
5499;SDS011;2772;42.700;23.304;2023-04-24T12:16:10;12.63;;;7.73;;
5499;SDS011;2772;42.700;23.304;2023-04-24T12:18:41;26.00;;;8.60;;
5499;SDS011;2772;42.700;23.304;2023-04-24T12:21:15;21.27;;;7.37;;
5499;SDS011;2772;42.700;23.304;2023-04-24T12:23:43;31.80;;;15.43;;
5499;SDS011;2772;42.700;23.304;2023-04-24T12:26:11;9.83;;;6.97;;
5499;SDS011;2772;42.700;23.304;2023-04-24T12:28:41;7.43;;;5.80;;
5499;SDS011;2772;42.700;23.304;2023-04-24T12:31:08;32.13;;;11.60;;
5499;SDS011;2772;42.700;23.304;2023-04-24T12:33:35;24.70;;;7.67;;
5499;SDS011;2772;42.700;23.304;2023-04-24T12:36:02;20.77;;;8.63;;
5499;SDS011;2772;42.700;23.304;2023-04-24T12:38:30;14.70;;;8.30;;
5499;SDS011;2772;42.700;23.304;2023-04-24T12:41:05;17.20;;;7.70;;
5499;SDS011;2772;42.700;23.304;2023-04-24T12:43:35;14.23;;;6.03;;
5499;SDS011;2772;42.700;23.304;2023-04-24T12:46:02;7.83;;;5.80;;
5499;SDS011;2772;42.700;23.304;2023-04-24T12:48:29;9.90;;;5.13;;
5499;SDS011;2772;42.700;23.304;2023-04-24T12:50:56;6.10;;;5.50;;
5499;SDS011;2772;42.700;23.304;2023-04-24T12:53:26;6.40;;;5.80;;
5499;SDS011;2772;42.700;23.304;2023-04-24T12:55:57;28.10;;;7.50;;
5499;SDS011;2772;42.700;23.304;2023-04-24T12:58:23;11.37;;;6.53;;
5499;SDS011;2772;42.700;23.304;2023-04-24T13:00:52;20.87;;;8.50;;
5499;SDS011;2772;42.700;23.304;2023-04-24T13:03:19;17.42;;;7.43;;
5499;SDS011;2772;42.700;23.304;2023-04-24T13:05:47;25.33;;;7.20;;
5499;SDS011;2772;42.700;23.304;2023-04-24T13:08:14;32.27;;;8.00;;
5499;SDS011;2772;42.700;23.304;2023-04-24T13:10:41;24.17;;;8.70;;
5499;SDS011;2772;42.700;23.304;2023-04-24T13:13:08;18.47;;;10.00;;
5499;SDS011;2772;42.700;23.304;2023-04-24T13:15:34;12.20;;;6.77;;
5499;SDS011;2772;42.700;23.304;2023-04-24T13:18:03;11.63;;;7.07;;
5499;SDS011;2772;42.700;23.304;2023-04-24T13:20:30;22.00;;;7.47;;
5499;SDS011;2772;42.700;23.304;2023-04-24T13:22:57;12.53;;;5.93;;
5499;SDS011;2772;42.700;23.304;2023-04-24T13:25:23;17.07;;;7.47;;
5499;SDS011;2772;42.700;23.304;2023-04-24T13:27:51;12.80;;;5.63;;
5499;SDS011;2772;42.700;23.304;2023-04-24T13:30:18;20.53;;;7.07;;
5499;SDS011;2772;42.700;23.304;2023-04-24T13:32:45;12.27;;;7.80;;
5499;SDS011;2772;42.700;23.304;2023-04-24T13:35:13;13.30;;;6.53;;
5499;SDS011;2772;42.700;23.304;2023-04-24T13:37:40;16.67;;;5.97;;
5499;SDS011;2772;42.700;23.304;2023-04-24T13:40:07;11.60;;;6.53;;
5499;SDS011;2772;42.700;23.304;2023-04-24T13:42:34;6.20;;;5.40;;
5499;SDS011;2772;42.700;23.304;2023-04-24T13:45:01;14.77;;;7.07;;
5499;SDS011;2772;42.700;23.304;2023-04-24T13:47:28;11.10;;;8.00;;
5499;SDS011;2772;42.700;23.304;2023-04-24T13:49:55;6.50;;;5.73;;
5499;SDS011;2772;42.700;23.304;2023-04-24T13:52:23;17.20;;;6.20;;
5499;SDS011;2772;42.700;23.304;2023-04-24T13:54:50;11.30;;;7.27;;
5499;SDS011;2772;42.700;23.304;2023-04-24T13:57:16;13.20;;;6.90;;
5499;SDS011;2772;42.700;23.304;2023-04-24T13:59:43;8.93;;;5.37;;
5499;SDS011;2772;42.700;23.304;2023-04-24T14:02:10;8.73;;;5.80;;
5499;SDS011;2772;42.700;23.304;2023-04-24T14:04:37;6.30;;;5.33;;
5499;SDS011;2772;42.700;23.304;2023-04-24T14:07:04;5.90;;;5.40;;
5499;SDS011;2772;42.700;23.304;2023-04-24T14:09:32;9.37;;;5.83;;
5499;SDS011;2772;42.700;23.304;2023-04-24T14:11:59;6.80;;;6.03;;
5499;SDS011;2772;42.700;23.304;2023-04-24T14:14:27;11.07;;;6.47;;
5499;SDS011;2772;42.700;23.304;2023-04-24T14:16:54;9.30;;;6.40;;
5499;SDS011;2772;42.700;23.304;2023-04-24T14:19:21;13.57;;;6.53;;
5499;SDS011;2772;42.700;23.304;2023-04-24T14:21:48;9.10;;;6.63;;
5499;SDS011;2772;42.700;23.304;2023-04-24T14:24:15;14.30;;;6.63;;
5499;SDS011;2772;42.700;23.304;2023-04-24T14:26:43;8.87;;;5.70;;
5499;SDS011;2772;42.700;23.304;2023-04-24T14:29:10;13.60;;;5.50;;
5499;SDS011;2772;42.700;23.304;2023-04-24T14:31:37;6.13;;;5.60;;
5499;SDS011;2772;42.700;23.304;2023-04-24T14:34:03;9.13;;;6.67;;
5499;SDS011;2772;42.700;23.304;2023-04-24T14:36:30;8.40;;;6.10;;
5499;SDS011;2772;42.700;23.304;2023-04-24T14:38:57;15.47;;;6.20;;
5499;SDS011;2772;42.700;23.304;2023-04-24T14:41:24;7.10;;;5.50;;
5499;SDS011;2772;42.700;23.304;2023-04-24T14:43:52;15.50;;;6.27;;
5499;SDS011;2772;42.700;23.304;2023-04-24T14:46:19;12.70;;;6.97;;
5499;SDS011;2772;42.700;23.304;2023-04-24T14:48:46;10.53;;;5.73;;
5499;SDS011;2772;42.700;23.304;2023-04-24T14:51:13;6.70;;;5.73;;
5499;SDS011;2772;42.700;23.304;2023-04-24T14:53:39;20.43;;;9.77;;